Littleriver, California
Current Conditions -  °F | °C
As of 8:56 PM on Wednesday 17 Dec 2014 (Local Time) from KUKI Reporting Station
Moderate Rain Moderate Rain  
Wind Chill: 45°   Ceiling: 2800
Heat Index: 48°   Visibility: 5mi
Dew Point: 44°   Wind: 6mph
Humidity: 86%   Direction: 180°S
Pressure: 30.04"   Gusts: NA
Location:  39.2639°N, 123.761°W
Report Text: KUKI 180356Z AUTO 18005KT 5SM RA BR OVC028 09/07 A3004 RMK AO2 SLP168 P0002 T00890067
Loading
Personal Weather Stations






























Interactive Weather Map New forecast layout! Learn more

10-Day Weather Forecast

Advertisements
Track Severe Weather on mobile